createdAt,value
2018-08-18T00:00:10.240Z,9.30
2018-08-18T00:01:10.117Z,8.20
2018-08-18T00:02:10.262Z,7.30
2018-08-18T00:03:10.068Z,8.10
2018-08-18T00:04:58.889Z,10.50
2018-08-18T00:05:58.838Z,7.30
2018-08-18T00:06:58.822Z,8.80
2018-08-18T00:07:58.785Z,8.10
2018-08-18T00:08:58.809Z,7.40
2018-08-18T00:09:58.785Z,7.90
2018-08-18T00:10:58.722Z,9.60
2018-08-18T00:11:58.782Z,8.70
2018-08-18T00:12:58.664Z,10.60
2018-08-18T00:13:58.685Z,8.00
2018-08-18T00:14:58.625Z,7.60
2018-08-18T00:15:58.707Z,7.00
2018-08-18T00:16:58.601Z,9.50
2018-08-18T00:17:58.610Z,6.80
2018-08-18T00:18:58.520Z,8.20
2018-08-18T00:19:58.527Z,6.00
2018-08-18T00:20:58.473Z,6.30
2018-08-18T00:21:58.548Z,7.50
2018-08-18T00:22:58.422Z,7.80
2018-08-18T00:23:58.406Z,5.20
2018-08-18T00:24:58.374Z,5.50
2018-08-18T00:25:58.458Z,6.80
2018-08-18T00:26:58.329Z,6.10
2018-08-18T00:27:58.477Z,7.00
2018-08-18T00:28:58.288Z,6.90
2018-08-18T00:29:58.292Z,5.70
2018-08-18T00:30:58.227Z,6.30
2018-08-18T00:31:58.328Z,7.60
2018-08-18T00:32:58.204Z,5.80
2018-08-18T00:33:58.210Z,7.30
2018-08-18T00:34:58.145Z,6.40
2018-08-18T00:35:58.209Z,5.60
2018-08-18T00:36:58.091Z,9.20
2018-08-18T00:37:58.127Z,7.60
2018-08-18T00:38:58.040Z,6.20
2018-08-18T00:39:58.037Z,8.00
2018-08-18T00:40:58.101Z,6.00
2018-08-18T00:41:58.050Z,4.90
2018-08-18T00:42:57.944Z,8.10
2018-08-18T00:43:57.963Z,6.60
2018-08-18T00:44:57.902Z,6.70
2018-08-18T00:45:59.919Z,6.30
2018-08-18T00:46:57.859Z,6.60
2018-08-18T00:47:57.885Z,9.00
2018-08-18T00:48:57.804Z,6.70
2018-08-18T00:49:57.891Z,6.80
2018-08-18T00:50:57.750Z,8.60
2018-08-18T00:51:57.743Z,6.60
2018-08-18T00:52:57.812Z,5.70
2018-08-18T00:53:57.681Z,6.90
2018-08-18T00:54:57.759Z,5.70
2018-08-18T00:55:57.631Z,10.20
2018-08-18T00:56:57.641Z,6.60
2018-08-18T00:57:57.602Z,7.20
2018-08-18T00:58:57.651Z,6.00
2018-08-18T00:59:57.532Z,5.50
2018-08-18T01:00:57.577Z,8.40
2018-08-18T01:01:57.501Z,5.70
2018-08-18T01:02:57.623Z,6.40
2018-08-18T01:03:57.479Z,6.10
2018-08-18T01:04:57.482Z,5.80
2018-08-18T01:05:57.393Z,8.30
2018-08-18T01:06:57.499Z,5.80
2018-08-18T01:07:57.362Z,6.70
2018-08-18T01:08:57.418Z,10.80
2018-08-18T01:09:57.299Z,8.30
2018-08-18T01:10:57.345Z,9.00
2018-08-18T01:11:57.344Z,9.00
2018-08-18T01:12:57.419Z,10.60
2018-08-18T01:13:57.254Z,11.50
2018-08-18T01:14:57.426Z,7.10
2018-08-18T01:15:57.152Z,8.40
2018-08-18T01:16:57.132Z,8.70
2018-08-18T01:17:57.176Z,6.60
2018-08-18T01:18:57.084Z,9.50
2018-08-18T01:19:57.211Z,8.10
2018-08-18T01:20:57.037Z,8.30
2018-08-18T01:21:57.110Z,8.00
2018-08-18T01:22:56.997Z,6.30
2018-08-18T01:23:57.022Z,7.60
2018-08-18T01:24:56.959Z,9.50
2018-08-18T01:25:57.006Z,7.80
2018-08-18T01:26:56.952Z,8.50
2018-08-18T01:27:56.933Z,6.70
2018-08-18T01:28:56.871Z,7.70
2018-08-18T01:29:56.939Z,7.30
2018-08-18T01:30:56.806Z,6.80
2018-08-18T01:31:56.835Z,8.10
2018-08-18T01:32:56.743Z,8.00
2018-08-18T01:33:56.754Z,7.80
2018-08-18T01:34:56.701Z,6.60
2018-08-18T01:35:56.752Z,9.10
2018-08-18T01:36:56.653Z,6.80
2018-08-18T01:37:56.693Z,10.80
2018-08-18T01:38:56.606Z,7.80
2018-08-18T01:39:56.685Z,7.60
2018-08-18T01:40:56.591Z,9.50
2018-08-18T01:42:42.584Z,9.10
2018-08-18T01:43:42.558Z,9.50
2018-08-18T01:44:42.589Z,9.10
2018-08-18T01:45:42.466Z,8.30
2018-08-18T01:46:42.508Z,6.80
2018-08-18T01:47:42.417Z,6.30
2018-08-18T01:48:42.515Z,7.40
2018-08-18T01:49:42.388Z,8.40
2018-08-18T01:50:42.431Z,8.70
2018-08-18T01:51:42.340Z,7.10
2018-08-18T01:52:42.334Z,6.60
2018-08-18T01:53:42.267Z,6.20
2018-08-18T01:54:42.340Z,6.80
2018-08-18T01:55:42.226Z,6.60
2018-08-18T01:56:42.254Z,7.70
2018-08-18T01:57:42.175Z,7.70
2018-08-18T01:58:42.166Z,9.10
2018-08-18T01:59:42.132Z,8.60
2018-08-18T02:00:42.186Z,7.10
2018-08-18T02:01:42.078Z,11.30
2018-08-18T02:02:42.093Z,7.50
2018-08-18T02:03:42.040Z,8.20
2018-08-18T02:04:42.103Z,7.50
2018-08-18T02:05:41.982Z,10.60
2018-08-18T02:06:42.025Z,7.70
2018-08-18T02:07:41.930Z,8.20
2018-08-18T02:08:41.919Z,8.90
2018-08-18T02:09:41.892Z,9.00
2018-08-18T02:10:41.930Z,10.10
2018-08-18T02:11:41.835Z,8.10
2018-08-18T02:12:41.897Z,8.80
2018-08-18T02:13:41.802Z,10.60
2018-08-18T02:14:41.873Z,7.10
2018-08-18T02:15:41.731Z,7.30
2018-08-18T02:16:41.785Z,9.10
2018-08-18T02:17:41.694Z,7.90
2018-08-18T02:18:41.689Z,10.40
2018-08-18T02:19:41.639Z,7.30
2018-08-18T02:20:41.696Z,9.40
2018-08-18T02:21:41.590Z,9.80
2018-08-18T02:22:41.599Z,8.60
2018-08-18T02:23:41.542Z,9.40
2018-08-18T02:24:41.623Z,8.30
2018-08-18T02:25:41.483Z,9.40
2018-08-18T02:26:41.524Z,8.80
2018-08-18T02:27:41.442Z,9.60
2018-08-18T02:28:41.434Z,10.50
2018-08-18T02:29:41.388Z,7.40
2018-08-18T02:30:41.448Z,9.00
2018-08-18T02:31:41.352Z,7.10
2018-08-18T02:32:41.355Z,11.20
2018-08-18T02:33:41.307Z,7.20
2018-08-18T02:34:41.374Z,7.80
2018-08-18T02:35:41.249Z,7.80
2018-08-18T02:36:41.280Z,10.50
2018-08-18T02:37:41.223Z,13.00
2018-08-18T02:38:41.195Z,11.20
2018-08-18T02:39:41.142Z,11.10
2018-08-18T02:40:41.142Z,12.00
2018-08-18T02:41:41.104Z,10.10
2018-08-18T02:42:41.083Z,10.40
2018-08-18T02:43:41.050Z,10.80
2018-08-18T02:44:41.026Z,11.00
2018-08-18T02:45:41.008Z,10.20
2018-08-18T02:46:40.980Z,12.80
2018-08-18T02:47:40.960Z,9.70
2018-08-18T02:48:40.933Z,10.30
2018-08-18T02:49:40.913Z,11.90
2018-08-18T02:50:40.885Z,10.60
2018-08-18T02:51:40.857Z,11.90
2018-08-18T02:52:40.864Z,9.60
2018-08-18T02:53:40.816Z,10.60
2018-08-18T02:54:40.788Z,10.90
2018-08-18T02:55:40.761Z,14.70
2018-08-18T02:56:40.760Z,12.90
2018-08-18T02:57:40.716Z,12.90
2018-08-18T02:58:40.701Z,8.90
2018-08-18T02:59:40.666Z,9.30
2018-08-18T03:00:40.670Z,11.90
2018-08-18T03:01:40.625Z,11.20
2018-08-18T03:02:40.667Z,10.70
2018-08-18T03:03:40.570Z,10.20
2018-08-18T03:04:40.587Z,12.90
2018-08-18T03:06:26.608Z,12.30
2018-08-18T03:07:26.537Z,9.80
2018-08-18T03:08:26.583Z,11.40
2018-08-18T03:09:26.523Z,9.90
2018-08-18T03:10:26.555Z,12.60
2018-08-18T03:11:26.450Z,10.50
2018-08-18T03:12:27.495Z,10.50
2018-08-18T03:13:26.405Z,11.30
2018-08-18T03:14:26.892Z,9.60
2018-08-18T03:15:26.377Z,10.00
2018-08-18T03:16:26.394Z,12.50
2018-08-18T03:17:26.299Z,10.00
2018-08-18T03:18:26.308Z,9.60
2018-08-18T03:19:26.249Z,10.20
2018-08-18T03:20:26.322Z,15.30
2018-08-18T03:21:26.201Z,10.40
2018-08-18T03:22:27.261Z,13.20
2018-08-18T03:23:26.176Z,10.10
2018-08-18T03:24:26.243Z,12.70
2018-08-18T03:25:26.107Z,12.90
2018-08-18T03:26:26.152Z,11.10
2018-08-18T03:27:26.059Z,11.20
2018-08-18T03:28:26.063Z,13.20
2018-08-18T03:29:26.010Z,10.80
2018-08-18T03:30:26.078Z,11.30
2018-08-18T03:31:25.957Z,12.70
2018-08-18T03:32:25.995Z,14.00
2018-08-18T03:33:25.926Z,15.10
2018-08-18T03:34:25.904Z,12.20
2018-08-18T03:35:25.863Z,16.10
2018-08-18T03:36:25.926Z,14.20
2018-08-18T03:38:13.074Z,14.20
2018-08-18T03:39:13.029Z,11.80
2018-08-18T03:40:12.984Z,12.30
2018-08-18T03:41:13.048Z,12.10
2018-08-18T03:42:12.908Z,11.80
2018-08-18T03:43:12.957Z,11.00
2018-08-18T03:44:12.869Z,10.60
2018-08-18T03:45:12.859Z,11.80
2018-08-18T03:46:12.813Z,12.80
2018-08-18T03:47:12.890Z,12.20
2018-08-18T03:48:12.782Z,10.50
2018-08-18T03:49:12.824Z,14.60
2018-08-18T03:50:12.708Z,12.90
2018-08-18T03:51:12.706Z,13.10
2018-08-18T03:52:12.674Z,11.50
2018-08-18T03:53:12.728Z,11.80
2018-08-18T03:54:12.616Z,13.40
2018-08-18T03:55:12.642Z,12.40
2018-08-18T03:56:12.577Z,12.00
2018-08-18T03:57:12.646Z,10.30
2018-08-18T03:58:12.524Z,10.90
2018-08-18T03:59:12.590Z,9.60
2018-08-18T04:00:12.464Z,13.00
2018-08-18T04:01:12.470Z,9.90
2018-08-18T04:02:12.421Z,12.40
2018-08-18T04:03:12.485Z,11.20
2018-08-18T04:04:12.369Z,10.70
2018-08-18T04:05:12.409Z,12.90
2018-08-18T04:06:12.320Z,8.90
2018-08-18T04:07:12.308Z,8.70
2018-08-18T04:08:12.273Z,7.80
2018-08-18T04:09:12.366Z,11.90
2018-08-18T04:10:12.239Z,9.10
2018-08-18T04:11:13.242Z,8.10
2018-08-18T04:12:12.179Z,9.30
2018-08-18T04:13:12.233Z,8.20
2018-08-18T04:14:12.129Z,12.10
2018-08-18T04:15:12.148Z,9.70
2018-08-18T04:16:12.077Z,9.40
2018-08-18T04:17:12.178Z,10.00
2018-08-18T04:18:12.025Z,10.40
2018-08-18T04:19:13.095Z,11.10
2018-08-18T04:20:11.992Z,7.90
2018-08-18T04:21:12.179Z,10.20
2018-08-18T04:22:11.962Z,8.50
2018-08-18T04:23:11.919Z,9.90
2018-08-18T04:24:11.881Z,8.90
2018-08-18T04:25:12.920Z,10.50
2018-08-18T04:26:11.842Z,12.00
2018-08-18T04:27:11.820Z,12.00
2018-08-18T04:28:11.775Z,9.90
2018-08-18T04:29:11.756Z,12.50
2018-08-18T04:30:11.734Z,9.20
2018-08-18T04:31:11.743Z,11.80
2018-08-18T04:32:11.687Z,9.50
2018-08-18T04:33:11.662Z,14.50
2018-08-18T04:34:11.639Z,11.30
2018-08-18T04:35:11.640Z,14.60
2018-08-18T04:36:11.589Z,11.60
2018-08-18T04:37:11.566Z,11.00
2018-08-18T04:38:11.540Z,15.80
2018-08-18T04:39:11.515Z,11.20
2018-08-18T04:40:11.494Z,10.70
2018-08-18T04:41:11.465Z,10.70
2018-08-18T04:42:11.449Z,17.40
2018-08-18T04:43:11.423Z,14.90
2018-08-18T04:44:11.384Z,12.30
2018-08-18T04:45:11.373Z,10.00
2018-08-18T04:46:11.351Z,11.30
2018-08-18T04:47:11.329Z,10.80
2018-08-18T04:48:11.316Z,11.30
2018-08-18T04:49:11.267Z,11.70
2018-08-18T04:50:11.239Z,15.30
2018-08-18T04:51:11.218Z,9.90
2018-08-18T04:52:11.183Z,11.30
2018-08-18T04:53:11.164Z,12.80
2018-08-18T04:54:11.141Z,9.60
2018-08-18T04:55:11.122Z,13.40
2018-08-18T04:56:11.084Z,14.00
2018-08-18T04:57:11.069Z,11.90
2018-08-18T04:58:11.042Z,10.60
2018-08-18T04:59:11.042Z,13.80
2018-08-18T05:01:02.683Z,14.90
2018-08-18T05:02:02.627Z,12.90
2018-08-18T05:03:02.597Z,12.90
2018-08-18T05:04:02.572Z,12.80
2018-08-18T05:05:02.556Z,8.90
2018-08-18T05:06:02.534Z,11.30
2018-08-18T05:07:02.500Z,10.00
2018-08-18T05:08:03.480Z,8.70
2018-08-18T05:09:02.442Z,10.60
2018-08-18T05:10:02.421Z,12.00
2018-08-18T05:11:02.402Z,10.80
2018-08-18T05:12:02.383Z,9.70
2018-08-18T05:13:02.347Z,10.40
2018-08-18T05:14:02.323Z,10.50
2018-08-18T05:15:02.297Z,10.70
2018-08-18T05:16:02.283Z,10.60
2018-08-18T05:17:02.240Z,13.60
2018-08-18T05:18:03.242Z,12.40
2018-08-18T05:19:02.311Z,11.10
2018-08-18T05:20:03.206Z,12.40
2018-08-18T05:21:02.163Z,15.30
2018-08-18T05:22:02.147Z,10.50
2018-08-18T05:23:02.118Z,13.60
2018-08-18T05:24:02.103Z,9.30
2018-08-18T05:25:02.053Z,10.10
2018-08-18T05:26:02.039Z,10.70
2018-08-18T05:27:02.006Z,11.30
2018-08-18T05:28:01.990Z,13.80
2018-08-18T05:29:52.400Z,13.70
2018-08-18T05:30:52.349Z,10.40
2018-08-18T05:31:52.326Z,12.10
2018-08-18T05:32:52.293Z,13.00
2018-08-18T05:33:52.268Z,12.00
2018-08-18T05:34:54.259Z,12.30
2018-08-18T05:35:52.223Z,10.60
2018-08-18T05:36:52.225Z,10.40
2018-08-18T05:37:52.172Z,12.70
2018-08-18T05:38:52.147Z,12.90
2018-08-18T05:39:52.131Z,17.90
2018-08-18T05:40:52.101Z,10.40
2018-08-18T05:41:52.074Z,12.30
2018-08-18T05:42:52.052Z,16.50
2018-08-18T05:43:52.024Z,13.40
2018-08-18T05:44:52.009Z,10.70
2018-08-18T05:45:51.974Z,11.60
2018-08-18T05:46:52.969Z,11.50
2018-08-18T05:47:51.927Z,11.90
2018-08-18T05:48:51.904Z,13.80
2018-08-18T05:49:51.954Z,13.80
2018-08-18T05:50:52.100Z,15.10
2018-08-18T05:51:51.829Z,14.60
2018-08-18T05:52:51.912Z,14.80
2018-08-18T05:53:51.774Z,15.20
2018-08-18T05:54:51.747Z,16.90
2018-08-18T05:55:51.729Z,15.00
2018-08-18T05:56:51.706Z,15.40
2018-08-18T05:57:51.667Z,16.10
2018-08-18T05:58:51.647Z,18.40
2018-08-18T05:59:51.620Z,14.10
2018-08-18T06:00:51.594Z,13.60
2018-08-18T06:01:51.573Z,12.60
2018-08-18T06:02:51.564Z,14.30
2018-08-18T06:03:51.524Z,14.50
2018-08-18T06:04:52.525Z,14.20
2018-08-18T06:05:51.500Z,12.40
2018-08-18T06:06:51.464Z,17.20
2018-08-18T06:07:51.445Z,13.80
2018-08-18T06:08:52.402Z,15.30
2018-08-18T06:09:51.373Z,13.30
2018-08-18T06:10:51.344Z,14.70
2018-08-18T06:11:51.350Z,13.80
2018-08-18T06:12:51.304Z,12.90
2018-08-18T06:13:51.268Z,15.00
2018-08-18T06:14:51.255Z,13.90
2018-08-18T06:15:51.222Z,13.80
2018-08-18T06:16:52.787Z,14.10
2018-08-18T06:17:51.183Z,10.90
2018-08-18T06:18:51.153Z,12.90
2018-08-18T06:19:51.130Z,13.50
2018-08-18T06:20:51.099Z,11.20
2018-08-18T06:22:37.092Z,14.80
2018-08-18T06:23:36.972Z,15.40
2018-08-18T06:24:36.968Z,13.20
2018-08-18T06:25:36.931Z,15.60
2018-08-18T06:26:36.904Z,11.70
2018-08-18T06:27:36.894Z,12.10
2018-08-18T06:28:36.846Z,12.50
2018-08-18T06:29:36.885Z,12.90
2018-08-18T06:30:36.803Z,14.40
2018-08-18T06:31:36.784Z,12.90
2018-08-18T06:32:36.750Z,15.20
2018-08-18T06:33:36.733Z,11.50
2018-08-18T06:34:36.772Z,13.50
2018-08-18T06:35:36.683Z,12.20
2018-08-18T06:36:36.648Z,11.90
2018-08-18T06:37:36.636Z,12.70
2018-08-18T06:38:36.620Z,14.50
2018-08-18T06:39:36.582Z,12.20
2018-08-18T06:40:36.571Z,12.80
2018-08-18T06:41:36.642Z,12.40
2018-08-18T06:42:36.505Z,11.70
2018-08-18T06:43:36.477Z,12.40
2018-08-18T06:44:36.455Z,12.90
2018-08-18T06:45:36.434Z,12.30
2018-08-18T06:46:36.401Z,11.40
2018-08-18T06:47:36.384Z,12.60
2018-08-18T06:48:36.373Z,13.40
2018-08-18T06:49:36.369Z,12.30
2018-08-18T06:50:36.341Z,13.40
2018-08-18T06:51:36.343Z,17.20
2018-08-18T06:52:36.284Z,12.50
2018-08-18T06:53:36.235Z,13.00
2018-08-18T06:54:36.224Z,15.10
2018-08-18T06:55:36.187Z,12.20
2018-08-18T06:56:36.169Z,11.80
2018-08-18T06:57:36.150Z,12.00
2018-08-18T06:58:36.105Z,13.40
2018-08-18T06:59:36.093Z,10.80
2018-08-18T07:00:36.069Z,11.90
2018-08-18T07:01:36.056Z,12.90
2018-08-18T07:02:36.014Z,12.20
2018-08-18T07:03:35.994Z,12.30
2018-08-18T07:04:35.976Z,11.80
2018-08-18T07:05:35.941Z,11.60
2018-08-18T07:06:35.927Z,11.20
2018-08-18T07:07:35.904Z,10.00
2018-08-18T07:08:35.862Z,10.60
2018-08-18T07:09:35.843Z,14.10
2018-08-18T07:10:35.821Z,13.90
2018-08-18T07:11:35.792Z,11.20
2018-08-18T07:12:35.761Z,12.50
2018-08-18T07:13:35.744Z,12.70
2018-08-18T07:14:35.716Z,12.50
2018-08-18T07:15:35.701Z,11.50
2018-08-18T07:16:35.666Z,12.50
2018-08-18T07:17:35.660Z,10.60
2018-08-18T07:18:35.632Z,10.80
2018-08-18T07:19:36.605Z,10.40
2018-08-18T07:20:35.571Z,10.90
2018-08-18T07:21:35.598Z,13.00
2018-08-18T07:22:35.522Z,11.50
2018-08-18T07:23:35.500Z,11.10
2018-08-18T07:24:35.492Z,9.10
2018-08-18T07:25:35.447Z,10.10
2018-08-18T07:26:35.418Z,9.40
2018-08-18T07:27:35.401Z,10.60
2018-08-18T07:28:35.528Z,9.50
2018-08-18T07:29:35.422Z,8.50
2018-08-18T07:30:35.337Z,10.40
2018-08-18T07:31:35.309Z,9.60
2018-08-18T07:32:35.272Z,9.30
2018-08-18T07:33:35.269Z,11.00
2018-08-18T07:34:35.225Z,8.40
2018-08-18T07:35:35.220Z,11.70
2018-08-18T07:36:35.184Z,10.60
2018-08-18T07:37:36.227Z,10.70
2018-08-18T07:38:35.126Z,9.60
2018-08-18T07:39:35.116Z,8.80
2018-08-18T07:40:35.075Z,12.10
2018-08-18T07:41:35.068Z,10.80
2018-08-18T07:42:35.026Z,10.60
2018-08-18T07:43:37.014Z,9.00
2018-08-18T07:44:34.996Z,8.70
2018-08-18T07:45:34.953Z,10.50
2018-08-18T07:46:34.931Z,8.80
2018-08-18T07:47:34.916Z,7.80
2018-08-18T07:48:34.893Z,6.30
2018-08-18T07:50:22.229Z,9.50
2018-08-18T07:51:22.174Z,6.40
2018-08-18T07:52:22.149Z,8.50
2018-08-18T07:53:22.633Z,9.10
2018-08-18T07:54:22.155Z,8.50
2018-08-18T07:55:22.085Z,7.60
2018-08-18T07:56:22.498Z,6.40
2018-08-18T07:57:22.040Z,7.80
2018-08-18T07:58:22.005Z,7.70
2018-08-18T07:59:21.980Z,9.00
2018-08-18T08:00:21.985Z,7.40
2018-08-18T08:01:21.932Z,6.90
2018-08-18T08:02:22.901Z,7.20
2018-08-18T08:03:21.889Z,8.20
2018-08-18T08:04:22.852Z,10.70
2018-08-18T08:05:21.830Z,7.70
2018-08-18T08:06:21.815Z,8.40
2018-08-18T08:07:21.784Z,12.70
2018-08-18T08:08:21.791Z,8.50
2018-08-18T08:09:21.728Z,9.60
2018-08-18T08:10:21.704Z,5.30
2018-08-18T08:11:21.679Z,6.90
2018-08-18T08:12:21.673Z,7.20
2018-08-18T08:13:21.622Z,8.50
2018-08-18T08:14:21.613Z,5.90
2018-08-18T08:15:21.577Z,5.50
2018-08-18T08:16:21.561Z,6.70
2018-08-18T08:17:21.526Z,4.50
2018-08-18T08:18:21.613Z,5.40
2018-08-18T08:19:21.501Z,5.20
2018-08-18T08:20:21.471Z,3.60
2018-08-18T08:21:21.435Z,4.70
2018-08-18T08:22:21.423Z,3.30
2018-08-18T08:23:21.388Z,5.60
2018-08-18T08:24:21.373Z,4.80
2018-08-18T08:25:21.337Z,5.10
2018-08-18T08:26:21.317Z,4.70
2018-08-18T08:27:21.291Z,4.80
2018-08-18T08:28:21.266Z,8.00
2018-08-18T08:29:21.244Z,6.60
2018-08-18T08:30:21.213Z,5.70
2018-08-18T08:31:21.188Z,6.20
2018-08-18T08:32:21.166Z,7.50
2018-08-18T08:33:21.132Z,7.20
2018-08-18T08:34:21.128Z,4.50
2018-08-18T08:35:21.088Z,6.60
2018-08-18T08:36:21.068Z,6.50
2018-08-18T08:37:21.039Z,6.40
2018-08-18T08:38:21.021Z,7.30
2018-08-18T08:39:20.996Z,5.30
2018-08-18T08:40:20.968Z,7.40
2018-08-18T08:41:20.932Z,7.00
2018-08-18T08:42:20.943Z,6.60
2018-08-18T08:43:20.963Z,6.10
2018-08-18T08:44:20.868Z,4.00
2018-08-18T08:45:20.837Z,6.20
2018-08-18T08:46:20.839Z,3.40
2018-08-18T08:47:20.801Z,5.60
2018-08-18T08:48:20.789Z,5.00
2018-08-18T08:49:20.743Z,6.60
2018-08-18T08:50:20.724Z,9.30
2018-08-18T08:51:20.694Z,6.90
2018-08-18T08:52:20.674Z,6.80
2018-08-18T08:53:20.673Z,6.00
2018-08-18T08:54:07.282Z,8.00
2018-08-18T08:55:07.220Z,4.30
2018-08-18T08:56:07.221Z,4.60
2018-08-18T08:57:07.161Z,6.60
2018-08-18T08:58:07.141Z,7.30
2018-08-18T08:59:07.116Z,6.00
2018-08-18T09:00:07.081Z,5.70
2018-08-18T09:01:07.120Z,5.60
2018-08-18T09:02:07.042Z,3.40
2018-08-18T09:03:07.027Z,6.70
2018-08-18T09:04:06.993Z,5.70
2018-08-18T09:05:06.966Z,2.40
2018-08-18T09:06:06.941Z,7.00
2018-08-18T09:07:06.919Z,5.40
2018-08-18T09:08:06.908Z,2.50
2018-08-18T09:09:06.870Z,3.20
2018-08-18T09:10:06.864Z,3.40
2018-08-18T09:11:06.860Z,2.90
2018-08-18T09:12:06.786Z,3.00
2018-08-18T09:13:06.774Z,3.60
2018-08-18T09:14:06.747Z,3.70
2018-08-18T09:15:06.732Z,4.20
2018-08-18T09:16:06.712Z,4.90
2018-08-18T09:17:06.673Z,3.50
2018-08-18T09:18:06.646Z,2.50
2018-08-18T09:19:06.620Z,6.60
2018-08-18T09:20:06.590Z,5.10
2018-08-18T09:21:06.573Z,5.70
2018-08-18T09:22:06.538Z,3.30
2018-08-18T09:23:06.550Z,6.70
2018-08-18T09:24:06.521Z,5.10
2018-08-18T09:25:07.485Z,3.80
2018-08-18T09:26:06.451Z,2.40
2018-08-18T09:27:06.426Z,4.30
2018-08-18T09:28:06.397Z,3.50
2018-08-18T09:29:06.389Z,4.90
2018-08-18T09:30:06.345Z,3.80
2018-08-18T09:31:06.338Z,3.70
2018-08-18T09:32:06.298Z,4.30
2018-08-18T09:33:06.281Z,4.10
2018-08-18T09:34:06.245Z,4.40
2018-08-18T09:35:06.232Z,4.20
2018-08-18T09:36:06.202Z,5.10
2018-08-18T09:37:06.190Z,7.50
2018-08-18T09:38:06.160Z,7.80
2018-08-18T09:39:07.140Z,4.20
2018-08-18T09:40:52.059Z,7.40
2018-08-18T09:41:52.028Z,7.20
2018-08-18T09:42:52.000Z,5.90
2018-08-18T09:43:52.964Z,4.40
2018-08-18T09:44:51.937Z,2.70
2018-08-18T09:45:51.915Z,6.10
2018-08-18T09:46:51.888Z,4.20
2018-08-18T09:47:51.860Z,4.50
2018-08-18T09:48:51.841Z,6.20
2018-08-18T09:49:51.829Z,3.80
2018-08-18T09:50:51.783Z,3.60
2018-08-18T09:51:51.796Z,4.40
2018-08-18T09:52:51.746Z,4.50
2018-08-18T09:53:51.719Z,4.40
2018-08-18T09:54:51.770Z,4.10
2018-08-18T09:55:52.672Z,4.50
2018-08-18T09:56:51.646Z,6.50
2018-08-18T09:57:51.621Z,4.90
2018-08-18T09:58:51.594Z,6.20
2018-08-18T09:59:51.585Z,5.70
2018-08-18T10:00:51.538Z,9.80
2018-08-18T10:01:51.522Z,4.90
2018-08-18T10:02:51.503Z,6.60
2018-08-18T10:03:52.484Z,3.60
2018-08-18T10:04:51.452Z,5.00
2018-08-18T10:05:52.465Z,5.40
2018-08-18T10:06:51.406Z,5.90
2018-08-18T10:07:52.386Z,4.70
2018-08-18T10:08:51.558Z,3.90
2018-08-18T10:09:53.341Z,5.30
2018-08-18T10:10:51.317Z,5.60
2018-08-18T10:11:51.284Z,6.20
2018-08-18T10:12:51.262Z,4.30
2018-08-18T10:13:51.243Z,6.60
2018-08-18T10:14:51.209Z,6.50
2018-08-18T10:15:51.195Z,6.40
2018-08-18T10:16:51.182Z,9.10
2018-08-18T10:17:51.133Z,6.10
2018-08-18T10:18:51.110Z,5.00
2018-08-18T10:19:51.087Z,5.50
2018-08-18T10:20:51.067Z,7.10
2018-08-18T10:21:51.053Z,5.10
2018-08-18T10:22:51.018Z,5.80
2018-08-18T10:23:51.032Z,7.30
2018-08-18T10:24:50.985Z,3.50
2018-08-18T10:25:50.952Z,7.30
2018-08-18T10:26:50.973Z,3.80
2018-08-18T10:27:50.900Z,6.80
2018-08-18T10:28:50.864Z,5.80
2018-08-18T10:29:50.872Z,5.40
2018-08-18T10:30:50.826Z,7.80
2018-08-18T10:32:37.281Z,6.40
2018-08-18T10:33:37.261Z,7.60
2018-08-18T10:34:37.214Z,4.80
2018-08-18T10:35:37.182Z,5.10
2018-08-18T10:36:37.155Z,4.80
2018-08-18T10:37:37.141Z,5.30
2018-08-18T10:38:37.108Z,8.50
2018-08-18T10:39:37.090Z,5.00
2018-08-18T10:40:37.069Z,8.40
2018-08-18T10:41:37.033Z,3.80
2018-08-18T10:42:37.033Z,7.50
2018-08-18T10:43:37.009Z,5.10
2018-08-18T10:44:37.172Z,8.10
2018-08-18T10:45:36.939Z,4.80
2018-08-18T10:46:36.943Z,4.20
2018-08-18T10:47:36.901Z,6.30
2018-08-18T10:48:36.868Z,6.00
2018-08-18T10:49:36.859Z,7.20
2018-08-18T10:50:36.834Z,7.10
2018-08-18T10:51:22.594Z,10.90
2018-08-18T10:52:22.538Z,4.30
2018-08-18T10:53:22.525Z,6.80
2018-08-18T10:54:22.496Z,3.50
2018-08-18T10:55:22.481Z,9.50
2018-08-18T10:56:22.472Z,4.30
2018-08-18T10:57:22.435Z,4.20
2018-08-18T10:58:22.410Z,3.10
2018-08-18T10:59:22.377Z,4.60
2018-08-18T11:00:22.370Z,7.40
2018-08-18T11:01:22.328Z,4.80
2018-08-18T11:02:22.306Z,7.10
2018-08-18T11:03:22.320Z,7.50
2018-08-18T11:04:22.262Z,7.20
2018-08-18T11:05:22.235Z,7.20
2018-08-18T11:06:22.211Z,5.90
2018-08-18T11:07:22.202Z,7.70
2018-08-18T11:08:22.180Z,5.30
2018-08-18T11:09:22.139Z,5.00
2018-08-18T11:10:22.112Z,5.70
2018-08-18T11:11:22.101Z,6.00
2018-08-18T11:12:22.061Z,3.90
2018-08-18T11:13:22.058Z,3.70
2018-08-18T11:14:22.026Z,5.20
2018-08-18T11:15:22.009Z,5.60
2018-08-18T11:16:21.972Z,5.00
2018-08-18T11:17:21.959Z,4.30
2018-08-18T11:18:21.928Z,4.00
2018-08-18T11:19:21.915Z,4.70
2018-08-18T11:20:21.881Z,5.10
2018-08-18T11:21:21.860Z,5.10
2018-08-18T11:22:21.845Z,4.80
2018-08-18T11:23:21.824Z,6.20
2018-08-18T11:24:21.798Z,5.30
2018-08-18T11:25:08.200Z,8.70
2018-08-18T11:26:08.130Z,6.00
2018-08-18T11:27:08.112Z,4.40
2018-08-18T11:28:08.102Z,6.80
2018-08-18T11:29:08.063Z,5.00
2018-08-18T11:30:08.038Z,5.90
2018-08-18T11:31:08.010Z,4.70
2018-08-18T11:32:07.990Z,4.40
2018-08-18T11:33:07.976Z,4.70
2018-08-18T11:34:12.918Z,2.70
2018-08-18T11:35:07.945Z,4.90
2018-08-18T11:36:08.903Z,5.90
2018-08-18T11:37:07.879Z,4.60
2018-08-18T11:38:07.849Z,5.70
2018-08-18T11:39:07.830Z,4.40
2018-08-18T11:40:07.836Z,4.10
2018-08-18T11:41:07.790Z,3.50
2018-08-18T11:42:07.766Z,5.30
2018-08-18T11:43:07.737Z,2.90
2018-08-18T11:44:07.717Z,6.10
2018-08-18T11:45:07.699Z,3.70
2018-08-18T11:46:07.668Z,3.70
2018-08-18T11:47:07.681Z,5.00
2018-08-18T11:48:07.642Z,4.80
2018-08-18T11:49:07.605Z,4.10
2018-08-18T11:50:07.593Z,4.00
2018-08-18T11:51:07.568Z,5.80
2018-08-18T11:52:07.566Z,3.20
2018-08-18T11:53:07.590Z,3.80
2018-08-18T11:54:07.512Z,4.60
2018-08-18T11:55:07.664Z,5.80
2018-08-18T11:56:07.479Z,6.80
2018-08-18T11:57:07.480Z,4.40
2018-08-18T11:58:07.398Z,4.50
2018-08-18T11:59:07.367Z,3.80
2018-08-18T12:00:53.698Z,4.80
2018-08-18T12:01:53.692Z,3.80
2018-08-18T12:02:53.612Z,5.00
2018-08-18T12:03:53.576Z,4.10
2018-08-18T12:04:53.572Z,3.60
2018-08-18T12:05:53.534Z,4.30
2018-08-18T12:06:54.512Z,4.80
2018-08-18T12:07:53.482Z,5.20
2018-08-18T12:08:53.467Z,5.60
2018-08-18T12:09:53.440Z,4.90
2018-08-18T12:10:53.723Z,5.20
2018-08-18T12:11:53.510Z,4.00
2018-08-18T12:12:53.503Z,5.00
2018-08-18T12:13:53.406Z,3.90
2018-08-18T12:14:53.367Z,4.20
2018-08-18T12:15:53.312Z,3.10
2018-08-18T12:16:53.280Z,4.80
2018-08-18T12:17:53.241Z,3.20
2018-08-18T12:18:53.233Z,3.20
2018-08-18T12:19:53.213Z,4.50
2018-08-18T12:20:53.185Z,4.80
2018-08-18T12:21:53.159Z,4.10
2018-08-18T12:22:53.131Z,4.40
2018-08-18T12:23:53.107Z,4.00
2018-08-18T12:24:53.089Z,4.60
2018-08-18T12:25:53.057Z,5.60
2018-08-18T12:26:53.068Z,4.80
2018-08-18T12:27:53.017Z,3.00
2018-08-18T12:28:54.007Z,3.50
2018-08-18T12:29:53.112Z,5.20
2018-08-18T12:30:52.966Z,3.60
2018-08-18T12:31:52.934Z,5.50
2018-08-18T12:32:52.910Z,4.80
2018-08-18T12:33:52.884Z,3.40
2018-08-18T12:34:52.866Z,6.10
2018-08-18T12:35:52.838Z,5.20
2018-08-18T12:36:53.847Z,6.40
2018-08-18T12:37:52.791Z,5.00
2018-08-18T12:38:52.783Z,4.20
2018-08-18T12:39:52.745Z,4.50
2018-08-18T12:40:52.744Z,3.90
2018-08-18T12:41:52.695Z,2.90
2018-08-18T12:42:52.679Z,2.60
2018-08-18T12:43:52.661Z,3.60
2018-08-18T12:45:42.860Z,7.90
2018-08-18T12:46:43.812Z,3.80
2018-08-18T12:47:42.779Z,3.40
2018-08-18T12:48:42.764Z,2.40
2018-08-18T12:49:42.801Z,4.60
2018-08-18T12:50:42.712Z,5.90
2018-08-18T12:51:42.685Z,4.50
2018-08-18T12:52:42.668Z,3.00
2018-08-18T12:53:42.639Z,5.40
2018-08-18T12:54:42.615Z,4.20
2018-08-18T12:55:42.609Z,3.80
2018-08-18T12:56:42.607Z,3.10
2018-08-18T12:57:42.555Z,5.20
2018-08-18T12:58:42.693Z,4.00
2018-08-18T12:59:42.509Z,4.10
2018-08-18T13:00:42.500Z,5.60
2018-08-18T13:01:42.481Z,4.60
2018-08-18T13:02:42.456Z,5.80
2018-08-18T13:03:42.408Z,3.40
2018-08-18T13:04:42.397Z,3.40
2018-08-18T13:05:42.368Z,3.50
2018-08-18T13:06:42.352Z,3.30
2018-08-18T13:07:42.332Z,6.80
2018-08-18T13:08:42.307Z,4.30
2018-08-18T13:09:42.275Z,4.30
2018-08-18T13:10:42.259Z,4.20
2018-08-18T13:11:42.239Z,5.40
2018-08-18T13:12:42.221Z,3.10
2018-08-18T13:13:42.194Z,7.70
2018-08-18T13:14:42.185Z,3.80
2018-08-18T13:15:42.152Z,4.40
2018-08-18T13:16:42.134Z,3.10
2018-08-18T13:17:42.102Z,3.00